Time;durP1;ratioP1;P1;durP2;ratioP2;P2;SDS_P1;SDS_P2;PMS_P1;PMS_P2;Temp;Humidity;BMP_temperature;BMP_pressure;BME280_temperature;BME280_humidity;BME280_pressure;Samples;Min_cycle;Max_cycle;Signal;HPM_P1;HPM_P2
2022/09/24 00:00:10;;;;;;;14.82;7.03;;;15.60;82.60;;;;;;4975274;28;20049;-67
2022/09/24 00:02:36;;;;;;;14.30;7.28;;;15.60;82.60;;;;;;4962025;28;20539;-67
2022/09/24 00:05:02;;;;;;;13.38;6.95;;;15.60;82.60;;;;;;5014502;28;20037;-67
2022/09/24 00:07:27;;;;;;;12.38;6.57;;;15.60;82.60;;;;;;5026240;28;20040;-67
2022/09/24 00:09:53;;;;;;;13.25;7.57;;;15.60;82.70;;;;;;5020545;28;20036;-67
2022/09/24 00:12:18;;;;;;;12.15;7.10;;;15.60;82.70;;;;;;5038758;28;20442;-67
2022/09/24 00:14:44;;;;;;;14.00;7.88;;;15.60;82.70;;;;;;5040010;28;20022;-67
2022/09/24 00:17:09;;;;;;;10.10;6.18;;;15.60;82.70;;;;;;5019139;28;20033;-68
2022/09/24 00:19:35;;;;;;;15.77;7.45;;;15.60;82.70;;;;;;5041214;28;20173;-67
2022/09/24 00:22:01;;;;;;;13.50;6.45;;;15.60;82.70;;;;;;5044495;28;20024;-67
2022/09/24 00:27:10;;;;;;;9.15;5.95;;;15.50;82.70;;;;;;5038600;28;20041;-67
2022/09/24 00:29:36;;;;;;;11.38;6.18;;;15.60;82.80;;;;;;5021435;28;20021;-67
2022/09/24 00:32:03;;;;;;;11.90;5.95;;;15.60;82.80;;;;;;5038771;28;20498;-67
2022/09/24 00:34:29;;;;;;;9.98;6.53;;;15.60;82.80;;;;;;5026640;28;20060;-68
2022/09/24 00:36:54;;;;;;;12.90;6.20;;;15.50;82.80;;;;;;5042359;28;20064;-67
2022/09/24 00:39:20;;;;;;;12.30;7.07;;;15.50;82.80;;;;;;5017319;28;20033;-67
2022/09/24 00:41:47;;;;;;;15.70;6.57;;;15.60;82.90;;;;;;5039130;28;20507;-67
2022/09/24 00:44:46;;;;;;;10.10;5.80;;;15.50;82.80;;;;;;5039187;28;20025;-67
2022/09/24 00:47:37;;;;;;;8.98;5.88;;;15.50;82.80;;;;;;5022812;28;20029;-68
2022/09/24 00:50:15;;;;;;;12.45;6.38;;;15.60;82.90;;;;;;5030774;28;20076;-67
2022/09/24 00:53:15;;;;;;;9.77;6.22;;;15.60;82.90;;;;;;5046686;28;20044;-68
2022/09/24 00:55:44;;;;;;;11.20;6.78;;;15.50;82.80;;;;;;4969730;28;20104;-68
2022/09/24 00:58:13;;;;;;;12.48;6.25;;;15.50;82.80;;;;;;4982392;28;20367;-68
2022/09/24 01:00:43;;;;;;;16.77;6.47;;;15.50;82.80;;;;;;4978534;28;20077;-67
2022/09/24 01:03:17;;;;;;;11.90;6.03;;;15.50;82.80;;;;;;4964214;28;20066;-68
2022/09/24 01:05:43;;;;;;;8.93;5.38;;;15.50;82.80;;;;;;4964199;28;20097;-68
2022/09/24 01:08:15;;;;;;;9.70;5.78;;;15.50;82.90;;;;;;4979571;28;20478;-68
2022/09/24 01:11:14;;;;;;;10.32;6.72;;;15.50;82.90;;;;;;4979247;28;20093;-68
2022/09/24 01:13:54;;;;;;;11.50;6.28;;;15.50;82.90;;;;;;4980107;28;20039;-68
2022/09/24 01:16:46;;;;;;;13.77;6.75;;;15.50;83.00;;;;;;4979622;28;20065;-67
2022/09/24 01:20:05;;;;;;;18.52;5.85;;;15.50;82.90;;;;;;4982766;28;20043;-68
2022/09/24 01:23:12;;;;;;;15.25;6.07;;;15.50;83.00;;;;;;4969274;28;20030;-68
2022/09/24 01:26:18;;;;;;;10.05;5.85;;;15.50;83.00;;;;;;4970913;28;20238;-68
2022/09/24 01:29:05;;;;;;;9.02;5.38;;;15.50;83.00;;;;;;4968267;28;20558;-68
2022/09/24 01:31:40;;;;;;;9.70;5.25;;;15.50;83.00;;;;;;4986799;28;20125;-68
2022/09/24 01:34:08;;;;;;;10.43;6.05;;;15.50;83.00;;;;;;5029652;28;20021;-67
2022/09/24 01:36:37;;;;;;;10.52;6.38;;;15.50;83.00;;;;;;5029477;28;20022;-67
2022/09/24 01:39:06;;;;;;;12.02;6.35;;;15.50;83.00;;;;;;5046388;28;20526;-68
2022/09/24 01:41:34;;;;;;;9.90;6.22;;;15.40;83.80;;;;;;5048783;28;20108;-67
2022/09/24 01:44:03;;;;;;;12.35;6.25;;;15.50;83.00;;;;;;5016376;28;20033;-67
2022/09/24 01:46:30;;;;;;;11.15;6.38;;;15.40;83.00;;;;;;5040313;28;20017;-67
2022/09/24 01:48:57;;;;;;;11.15;6.45;;;15.40;83.00;;;;;;5045228;28;20519;-68
2022/09/24 01:51:25;;;;;;;7.45;5.47;;;15.40;83.00;;;;;;5032605;28;20029;-68
2022/09/24 01:54:00;;;;;;;10.32;5.32;;;15.40;83.10;;;;;;5041838;28;20025;-67
2022/09/24 01:56:35;;;;;;;7.43;5.18;;;15.40;83.00;;;;;;5043635;28;20025;-67
2022/09/24 01:59:06;;;;;;;12.80;6.28;;;15.50;83.10;;;;;;5035766;28;20024;-68
2022/09/24 02:01:55;;;;;;;10.05;5.53;;;15.40;83.00;;;;;;5038326;28;20103;-68
2022/09/24 02:04:24;;;;;;;9.38;5.97;;;15.40;83.00;;;;;;5041380;28;20033;-68
2022/09/24 02:07:05;;;;;;;11.87;5.73;;;15.40;83.10;;;;;;5041289;28;20025;-67
2022/09/24 02:09:35;;;;;;;9.60;5.82;;;15.40;83.10;;;;;;5023629;28;20273;-68
2022/09/24 02:12:09;;;;;;;12.50;5.22;;;15.40;83.10;;;;;;5045782;28;20034;-67
2022/09/24 02:14:41;;;;;;;10.95;5.63;;;15.40;83.10;;;;;;5033610;28;20100;-68
2022/09/24 02:17:09;;;;;;;7.60;4.82;;;15.40;83.10;;;;;;5044975;28;20116;-69
2022/09/24 02:19:38;;;;;;;9.00;5.95;;;15.40;83.10;;;;;;5044778;28;20280;-67
2022/09/24 02:22:06;;;;;;;10.05;5.15;;;15.40;83.90;;;;;;5026830;28;20027;-68
2022/09/24 02:24:39;;;;;;;11.13;5.13;;;15.40;83.10;;;;;;5039199;28;20064;-67
2022/09/24 02:27:04;;;;;;;9.00;5.82;;;15.40;83.20;;;;;;5045397;28;20025;-68
2022/09/24 02:29:30;;;;;;;8.60;4.70;;;15.40;83.20;;;;;;5037867;28;20032;-68
2022/09/24 02:31:57;;;;;;;10.90;4.60;;;15.40;83.20;;;;;;5042891;28;20025;-68
2022/09/24 02:34:30;;;;;;;8.60;5.00;;;15.40;83.20;;;;;;5031495;28;20026;-68
2022/09/24 02:37:04;;;;;;;9.05;5.38;;;15.40;83.30;;;;;;5041603;28;20028;-67
2022/09/24 02:39:30;;;;;;;8.57;5.03;;;15.40;83.20;;;;;;5028424;28;20075;-67
2022/09/24 02:41:57;;;;;;;10.02;5.85;;;15.40;83.20;;;;;;5042989;28;20061;-68
2022/09/24 02:44:23;;;;;;;11.52;5.43;;;15.40;83.20;;;;;;5034710;28;20055;-68
2022/09/24 02:46:49;;;;;;;11.85;5.03;;;15.40;83.30;;;;;;5025274;28;20034;-68
2022/09/24 02:49:15;;;;;;;10.38;5.47;;;15.40;83.20;;;;;;5040127;28;20116;-68
2022/09/24 02:51:42;;;;;;;10.07;5.30;;;15.40;83.30;;;;;;5040955;28;20064;-68
2022/09/24 02:54:09;;;;;;;15.10;5.60;;;15.40;83.30;;;;;;5037851;28;20033;-67
2022/09/24 02:56:35;;;;;;;10.73;6.00;;;15.40;83.20;;;;;;5034076;28;20021;-67
2022/09/24 02:59:03;;;;;;;10.95;6.20;;;15.40;83.20;;;;;;5022944;28;20094;-68
2022/09/24 03:01:30;;;;;;;9.57;5.20;;;15.40;83.30;;;;;;5040665;28;20026;-68
2022/09/24 03:03:56;;;;;;;7.43;5.60;;;15.40;83.30;;;;;;5040801;28;20024;-68
2022/09/24 03:06:23;;;;;;;9.75;5.18;;;15.40;83.30;;;;;;5039672;28;20034;-67
2022/09/24 03:08:49;;;;;;;11.30;5.53;;;15.40;83.30;;;;;;5022597;28;20028;-68
2022/09/24 03:11:15;;;;;;;6.90;4.55;;;15.40;83.30;;;;;;5021550;28;20037;-68
2022/09/24 03:13:40;;;;;;;12.85;4.72;;;15.40;83.30;;;;;;5039150;28;20540;-68
2022/09/24 03:16:07;;;;;;;7.82;4.82;;;15.40;83.30;;;;;;5039665;28;20033;-67
2022/09/24 03:18:33;;;;;;;8.75;4.57;;;15.40;83.30;;;;;;5014424;28;20021;-68
2022/09/24 03:21:05;;;;;;;7.13;4.57;;;15.30;83.30;;;;;;5048841;28;20033;-68
2022/09/24 03:23:31;;;;;;;13.00;5.25;;;15.40;83.30;;;;;;5040719;28;20022;-67
2022/09/24 03:25:57;;;;;;;10.45;5.57;;;15.40;83.30;;;;;;5038122;28;20017;-68
2022/09/24 03:28:22;;;;;;;13.90;5.10;;;15.40;83.30;;;;;;5038427;28;20386;-68
2022/09/24 03:31:00;;;;;;;12.15;5.68;;;15.40;83.40;;;;;;5040307;28;20029;-68
2022/09/24 03:33:30;;;;;;;9.05;5.60;;;15.40;83.40;;;;;;5040202;28;20507;-68
2022/09/24 03:36:02;;;;;;;9.52;5.65;;;15.40;83.40;;;;;;5039788;28;20024;-67
2022/09/24 03:38:29;;;;;;;10.52;5.70;;;15.40;83.40;;;;;;5038874;28;20422;-68
2022/09/24 03:40:56;;;;;;;9.52;4.40;;;15.40;83.40;;;;;;5040171;28;20025;-68
2022/09/24 03:43:22;;;;;;;9.60;5.07;;;15.40;83.40;;;;;;5040618;28;20032;-68
2022/09/24 03:45:48;;;;;;;7.57;4.78;;;15.40;83.40;;;;;;5047688;28;20120;-69
2022/09/24 03:48:16;;;;;;;7.50;4.57;;;15.40;83.40;;;;;;5039618;28;20040;-68
2022/09/24 03:50:42;;;;;;;6.75;4.43;;;15.40;83.40;;;;;;5021818;28;20024;-68
2022/09/24 03:53:08;;;;;;;7.53;5.15;;;15.40;83.40;;;;;;5047853;28;20091;-68
2022/09/24 03:55:34;;;;;;;9.88;5.18;;;15.40;83.40;;;;;;5027590;28;20437;-68
2022/09/24 03:58:00;;;;;;;12.07;5.35;;;15.40;83.40;;;;;;5016086;28;20061;-67
2022/09/24 04:00:26;;;;;;;7.63;4.35;;;15.40;83.40;;;;;;5021851;28;20052;-68
2022/09/24 04:02:52;;;;;;;10.27;5.40;;;15.40;83.40;;;;;;5029476;28;20491;-68
2022/09/24 04:05:18;;;;;;;17.48;5.50;;;15.40;83.40;;;;;;5040037;28;20128;-68
2022/09/24 04:07:44;;;;;;;10.85;5.68;;;15.40;83.40;;;;;;5038859;28;20061;-68
2022/09/24 04:10:10;;;;;;;13.35;5.78;;;15.40;83.40;;;;;;5021219;28;20052;-68
2022/09/24 04:12:36;;;;;;;9.52;6.07;;;15.40;83.40;;;;;;5038810;28;20025;-67
2022/09/24 04:15:02;;;;;;;13.60;6.65;;;15.40;83.50;;;;;;5041488;28;20051;-67
2022/09/24 04:17:30;;;;;;;12.77;6.38;;;15.40;83.50;;;;;;5038117;28;20034;-68
2022/09/24 04:19:59;;;;;;;10.20;6.45;;;15.40;83.50;;;;;;5038534;28;20024;-68
2022/09/24 04:22:27;;;;;;;12.20;7.22;;;15.40;83.50;;;;;;5043057;28;20025;-68
2022/09/24 04:24:55;;;;;;;18.10;7.85;;;15.40;83.40;;;;;;5040715;28;20123;-67
2022/09/24 04:27:21;;;;;;;12.95;7.15;;;15.40;83.50;;;;;;5036004;28;20506;-68
2022/09/24 04:29:47;;;;;;;9.65;6.57;;;15.40;83.60;;;;;;5042106;28;20367;-68
2022/09/24 04:32:12;;;;;;;16.48;7.40;;;15.40;83.60;;;;;;5039728;28;20486;-67
2022/09/24 04:34:38;;;;;;;15.15;7.25;;;15.40;83.60;;;;;;5026270;28;20405;-67
2022/09/24 04:37:04;;;;;;;10.20;6.30;;;15.40;83.60;;;;;;5040366;28;20064;-67
2022/09/24 04:39:30;;;;;;;11.90;7.15;;;15.40;83.60;;;;;;5038522;28;20025;-67
2022/09/24 04:41:56;;;;;;;14.13;6.93;;;15.40;83.70;;;;;;5040509;28;20091;-68
2022/09/24 04:44:22;;;;;;;9.23;5.75;;;15.40;83.70;;;;;;5038846;28;20082;-67
2022/09/24 04:46:48;;;;;;;8.32;5.75;;;15.40;83.80;;;;;;5035531;28;20103;-67
2022/09/24 04:49:14;;;;;;;12.90;5.03;;;15.40;83.90;;;;;;5039898;28;20025;-68
2022/09/24 04:51:40;;;;;;;12.30;5.45;;;15.40;83.80;;;;;;5035448;28;20030;-68
2022/09/24 04:54:09;;;;;;;9.50;5.18;;;15.40;83.80;;;;;;5041793;28;20064;-68
2022/09/24 04:56:34;;;;;;;9.75;5.65;;;15.40;83.90;;;;;;5040936;28;20039;-67
2022/09/24 04:59:00;;;;;;;20.38;8.77;;;15.40;83.90;;;;;;5020246;28;20029;-68
2022/09/24 05:01:26;;;;;;;11.02;6.75;;;15.40;83.90;;;;;;5040852;28;20471;-68
2022/09/24 05:03:52;;;;;;;11.07;6.30;;;15.40;83.90;;;;;;5041773;28;20355;-67
2022/09/24 05:06:18;;;;;;;22.98;7.68;;;15.40;83.90;;;;;;5038787;28;20029;-68
2022/09/24 05:08:43;;;;;;;13.40;7.40;;;15.40;84.00;;;;;;5043532;28;20024;-67
2022/09/24 05:11:09;;;;;;;12.52;7.15;;;15.40;84.00;;;;;;5040555;28;20429;-68
2022/09/24 05:13:34;;;;;;;13.50;7.13;;;15.40;84.00;;;;;;5030878;28;20032;-67
2022/09/24 05:16:02;;;;;;;11.82;5.70;;;15.40;84.00;;;;;;5040548;28;20044;-67
2022/09/24 05:18:27;;;;;;;14.85;5.25;;;15.40;84.00;;;;;;5042222;28;20108;-67
2022/09/24 05:20:53;;;;;;;10.20;5.53;;;15.40;84.00;;;;;;5042215;28;20104;-67
2022/09/24 05:23:19;;;;;;;11.38;5.38;;;15.40;84.00;;;;;;5043926;28;20087;-68
2022/09/24 07:08:50;;;;;;;11.55;6.57;;;15.50;84.80;;;;;;5043448;28;20035;-70
2022/09/24 07:11:16;;;;;;;16.45;7.10;;;15.50;84.80;;;;;;5043678;28;20033;-70
2022/09/24 07:13:41;;;;;;;13.68;6.72;;;15.50;84.80;;;;;;5036231;28;20033;-70
2022/09/24 07:16:07;;;;;;;16.90;8.20;;;15.50;84.80;;;;;;5043176;28;20473;-70
2022/09/24 07:18:32;;;;;;;16.48;9.55;;;15.50;84.90;;;;;;5022751;28;20029;-70
2022/09/24 07:20:58;;;;;;;17.63;8.57;;;15.50;84.90;;;;;;5043284;28;20017;-70
2022/09/24 07:23:23;;;;;;;18.15;8.40;;;15.50;84.90;;;;;;5043145;28;20382;-70
2022/09/24 07:25:53;;;;;;;13.43;8.50;;;15.50;85.00;;;;;;5021638;28;20013;-70
2022/09/24 07:28:19;;;;;;;13.05;7.00;;;15.60;85.00;;;;;;5031437;28;20025;-70
2022/09/24 07:30:45;;;;;;;14.93;7.75;;;15.50;85.00;;;;;;5041825;28;20025;-70
2022/09/24 07:33:10;;;;;;;11.68;7.38;;;15.50;85.00;;;;;;5025410;28;20057;-70
2022/09/24 07:35:37;;;;;;;14.63;8.88;;;15.50;85.00;;;;;;5041761;28;20311;-70
2022/09/24 07:38:10;;;;;;;15.27;8.65;;;15.50;85.00;;;;;;5035744;28;20104;-70
2022/09/24 07:40:36;;;;;;;15.05;8.15;;;15.60;85.00;;;;;;5041460;28;20390;-70
2022/09/24 07:43:02;;;;;;;13.50;8.00;;;15.50;85.10;;;;;;5039623;28;20033;-70
2022/09/24 07:45:28;;;;;;;16.15;8.45;;;15.60;85.20;;;;;;5046347;28;20025;-70
2022/09/24 07:48:03;;;;;;;15.23;8.32;;;15.60;85.20;;;;;;5030730;28;20037;-70
2022/09/24 07:50:31;;;;;;;16.17;8.23;;;15.60;85.20;;;;;;5029564;28;20116;-70
2022/09/24 07:52:57;;;;;;;16.20;8.55;;;15.60;85.20;;;;;;5022027;28;20487;-70
2022/09/24 07:55:24;;;;;;;9.40;5.60;;;15.60;86.00;;;;;;5039306;28;20108;-70
2022/09/24 07:57:52;;;;;;;13.32;7.35;;;15.60;85.20;;;;;;5041650;28;20024;-70
2022/09/24 08:00:19;;;;;;;10.05;6.22;;;15.60;85.30;;;;;;5036179;28;20028;-70
2022/09/24 08:02:46;;;;;;;9.20;6.20;;;15.60;85.30;;;;;;5047305;28;20528;-70
2022/09/24 08:05:14;;;;;;;14.70;7.32;;;15.60;86.00;;;;;;5039591;28;20064;-70
2022/09/24 08:07:40;;;;;;;9.55;5.68;;;15.60;85.40;;;;;;5031261;28;20053;-70
2022/09/24 08:10:06;;;;;;;12.15;7.50;;;15.60;86.10;;;;;;5042437;28;20036;-70
2022/09/24 08:12:31;;;;;;;10.63;6.00;;;15.60;85.40;;;;;;5032574;28;20057;-70
2022/09/24 08:14:58;;;;;;;12.90;7.57;;;15.60;85.40;;;;;;5028137;28;20466;-70
2022/09/24 08:17:25;;;;;;;14.30;7.00;;;15.60;85.50;;;;;;5038141;28;20057;-70
2022/09/24 08:19:55;;;;;;;10.10;6.97;;;15.60;85.50;;;;;;5028632;28;20033;-71
2022/09/24 08:22:21;;;;;;;13.23;6.65;;;15.60;85.60;;;;;;5020856;28;20045;-71
2022/09/24 08:24:47;;;;;;;12.93;7.05;;;15.60;85.50;;;;;;5038311;28;20025;-70
2022/09/24 08:27:12;;;;;;;10.95;6.95;;;15.60;85.50;;;;;;5022703;28;20075;-70
2022/09/24 08:29:39;;;;;;;15.23;7.68;;;15.60;85.60;;;;;;5029863;28;20035;-70
2022/09/24 08:32:04;;;;;;;11.48;6.70;;;15.70;85.60;;;;;;5038821;28;20040;-71
2022/09/24 08:34:37;;;;;;;11.70;6.50;;;15.60;85.60;;;;;;5038674;28;20096;-70
2022/09/24 08:37:04;;;;;;;10.88;6.80;;;15.70;85.70;;;;;;5038677;28;20219;-70
2022/09/24 08:39:31;;;;;;;16.70;8.07;;;15.70;85.70;;;;;;5038832;28;20493;-70
2022/09/24 08:42:01;;;;;;;19.98;8.85;;;15.70;85.70;;;;;;5041641;28;20020;-70
